createdAt,value
2023-02-15T00:01:48.584Z,-0.59
2023-02-15T00:04:17.281Z,-0.66
2023-02-15T00:06:43.837Z,-0.70
2023-02-15T00:09:11.840Z,-0.90
2023-02-15T00:11:41.214Z,-0.92
2023-02-15T00:14:23.189Z,-0.96
2023-02-15T00:16:52.746Z,-0.92
2023-02-15T00:19:20.860Z,-0.85
2023-02-15T00:21:48.770Z,-0.93
2023-02-15T00:24:17.953Z,-0.75
2023-02-15T00:26:45.397Z,-0.93
2023-02-15T00:29:13.147Z,-0.89
2023-02-15T00:31:40.047Z,-0.96
2023-02-15T00:34:15.662Z,-0.93
2023-02-15T00:36:43.364Z,-0.92
2023-02-15T00:39:10.574Z,-1.09
2023-02-15T00:41:37.553Z,-0.90
2023-02-15T00:44:05.031Z,-1.01
2023-02-15T00:46:32.655Z,-1.00
2023-02-15T00:48:59.239Z,-0.91
2023-02-15T00:51:26.746Z,-1.03
2023-02-15T00:53:53.452Z,-1.04
2023-02-15T00:56:20.276Z,-0.95
2023-02-15T00:58:47.037Z,-0.81
2023-02-15T01:01:17.918Z,-0.94
2023-02-15T01:03:44.669Z,-0.82
2023-02-15T01:06:11.980Z,-0.92
2023-02-15T01:08:39.256Z,-1.09
2023-02-15T01:11:07.979Z,-0.99
2023-02-15T01:13:35.243Z,-1.07
2023-02-15T01:16:03.489Z,-1.02
2023-02-15T01:18:30.957Z,-0.99
2023-02-15T01:20:57.732Z,-1.04
2023-02-15T01:23:24.492Z,-1.27
2023-02-15T01:25:51.181Z,-1.19
2023-02-15T01:28:17.858Z,-1.11
2023-02-15T01:30:44.409Z,-1.14
2023-02-15T01:33:19.117Z,-1.12
2023-02-15T01:35:47.073Z,-1.09
2023-02-15T01:38:15.326Z,-1.09
2023-02-15T01:40:42.111Z,-1.18
2023-02-15T01:43:13.522Z,-1.16
2023-02-15T01:45:42.269Z,-1.34
2023-02-15T01:48:22.660Z,-1.34
2023-02-15T01:50:58.528Z,-1.34
2023-02-15T01:53:31.351Z,-1.32
2023-02-15T01:56:12.221Z,-1.47
2023-02-15T01:58:39.803Z,-1.49
2023-02-15T02:01:09.798Z,-1.21
2023-02-15T02:04:14.080Z,-1.44
2023-02-15T02:06:41.099Z,-1.43
2023-02-15T02:09:08.350Z,-1.37
2023-02-15T02:11:35.767Z,-1.25
2023-02-15T02:14:02.621Z,-1.21
2023-02-15T02:16:44.226Z,-1.24
2023-02-15T02:19:32.596Z,-1.16
2023-02-15T02:22:17.984Z,-1.25
2023-02-15T02:25:12.001Z,-1.36
2023-02-15T02:27:57.628Z,-1.31
2023-02-15T02:30:42.929Z,-1.24
2023-02-15T02:33:30.376Z,-1.35
2023-02-15T02:36:07.237Z,-1.49
2023-02-15T02:38:47.229Z,-1.62
2023-02-15T02:41:52.248Z,-1.46
2023-02-15T02:44:50.949Z,-1.19
2023-02-15T02:47:28.965Z,-1.39
2023-02-15T02:50:08.416Z,-1.48
2023-02-15T02:52:36.360Z,-1.51
2023-02-15T02:55:11.185Z,-1.49
2023-02-15T02:57:41.688Z,-1.52
2023-02-15T03:00:09.803Z,-1.31
2023-02-15T03:02:42.322Z,-1.30
2023-02-15T03:05:16.953Z,-1.23
2023-02-15T03:07:49.346Z,-1.25
2023-02-15T03:10:17.129Z,-1.24
2023-02-15T03:12:43.842Z,-1.45
2023-02-15T03:15:16.459Z,-1.29
2023-02-15T03:17:46.491Z,-1.61
2023-02-15T03:20:26.535Z,-1.46
2023-02-15T03:22:59.262Z,-1.43
2023-02-15T03:25:37.453Z,-1.26
2023-02-15T03:28:07.953Z,-1.19
2023-02-15T03:30:37.046Z,-1.31
2023-02-15T03:33:06.520Z,-1.27
2023-02-15T03:35:50.961Z,-1.23
2023-02-15T03:38:25.609Z,-1.10
2023-02-15T03:41:12.301Z,-1.18
2023-02-15T03:43:46.240Z,-1.17
2023-02-15T03:46:32.946Z,-1.35
2023-02-15T03:49:08.828Z,-1.25
2023-02-15T03:51:40.098Z,-1.18
2023-02-15T03:54:11.068Z,-1.24
2023-02-15T03:56:40.189Z,-1.18
2023-02-15T03:59:25.377Z,-1.32
2023-02-15T04:02:18.402Z,-1.23
2023-02-15T04:04:48.519Z,-1.53
2023-02-15T04:07:15.285Z,-1.46
2023-02-15T04:10:00.641Z,-1.56
2023-02-15T04:12:27.272Z,-1.28
2023-02-15T04:15:12.684Z,-1.25
2023-02-15T04:17:39.311Z,-1.21
2023-02-15T04:20:25.181Z,-1.29
2023-02-15T04:23:10.447Z,-1.16
2023-02-15T04:25:37.166Z,-1.07
2023-02-15T04:28:03.676Z,-1.00
2023-02-15T04:30:30.493Z,-1.29
2023-02-15T04:32:58.275Z,-1.39
2023-02-15T04:35:24.976Z,-1.58
2023-02-15T04:37:51.902Z,-1.34
2023-02-15T04:40:19.610Z,-1.36
2023-02-15T04:42:49.896Z,-1.22
2023-02-15T04:45:16.383Z,-1.34
2023-02-15T04:47:43.043Z,-1.30
2023-02-15T04:50:10.019Z,-1.10
2023-02-15T04:52:37.387Z,-1.16
2023-02-15T04:55:03.870Z,-1.35
2023-02-15T04:57:30.271Z,-1.21
2023-02-15T04:59:56.677Z,-1.66
2023-02-15T05:02:23.274Z,-1.45
2023-02-15T05:04:49.942Z,-1.22
2023-02-15T05:07:16.548Z,-1.27
2023-02-15T05:09:43.542Z,-1.20
2023-02-15T05:12:10.224Z,-1.21
2023-02-15T05:14:36.869Z,-1.18
2023-02-15T05:17:04.544Z,-1.07
2023-02-15T05:19:31.131Z,-1.17
2023-02-15T05:21:57.541Z,-1.24
2023-02-15T05:24:42.991Z,-1.07
2023-02-15T05:27:32.424Z,-1.07
2023-02-15T05:29:59.090Z,-1.14
2023-02-15T05:32:26.007Z,-1.16
2023-02-15T05:34:52.756Z,-1.07
2023-02-15T05:37:19.456Z,-1.20
2023-02-15T05:39:46.411Z,-1.27
2023-02-15T05:42:12.843Z,-1.32
2023-02-15T05:44:39.478Z,-1.23
2023-02-15T05:47:08.307Z,-1.14
2023-02-15T05:49:34.929Z,-1.09
2023-02-15T05:52:01.505Z,-1.04
2023-02-15T05:54:28.779Z,-1.03
2023-02-15T05:56:55.594Z,-1.07
2023-02-15T05:59:22.153Z,-1.27
2023-02-15T06:01:48.813Z,-1.23
2023-02-15T06:04:15.490Z,-1.05
2023-02-15T06:06:41.902Z,-1.04
2023-02-15T06:09:08.444Z,-1.03
2023-02-15T06:11:35.007Z,-1.11
2023-02-15T06:14:01.729Z,-1.22
2023-02-15T06:16:28.257Z,-1.30
2023-02-15T06:18:54.916Z,-1.27
2023-02-15T06:21:21.484Z,-1.37
2023-02-15T06:23:48.065Z,-1.33
2023-02-15T06:26:14.428Z,-1.27
2023-02-15T06:28:42.286Z,-1.18
2023-02-15T06:31:09.147Z,-1.34
2023-02-15T06:33:36.094Z,-1.24
2023-02-15T06:36:05.104Z,-1.47
2023-02-15T06:38:32.390Z,-1.39
2023-02-15T06:40:59.189Z,-1.27
2023-02-15T06:43:25.619Z,-1.31
2023-02-15T06:45:52.292Z,-1.59
2023-02-15T06:48:18.921Z,-1.47
2023-02-15T06:50:45.363Z,-1.27
2023-02-15T06:53:12.096Z,-1.43
2023-02-15T06:55:38.808Z,-1.56
2023-02-15T06:58:05.213Z,-1.44
2023-02-15T07:00:31.603Z,-1.43
2023-02-15T07:02:59.256Z,-1.47
2023-02-15T07:05:32.362Z,-1.66
2023-02-15T07:08:00.331Z,-1.61
2023-02-15T07:10:28.417Z,-1.66
2023-02-15T07:12:55.024Z,-1.49
2023-02-15T07:15:22.994Z,-1.65
2023-02-15T07:17:50.484Z,-1.64
2023-02-15T07:20:21.881Z,-1.47
2023-02-15T07:22:51.000Z,-1.58
2023-02-15T07:25:18.277Z,-1.63
2023-02-15T07:27:45.749Z,-1.53
2023-02-15T07:30:15.322Z,-1.57
2023-02-15T07:33:05.007Z,-1.63
2023-02-15T07:35:32.353Z,-1.61
2023-02-15T07:37:58.749Z,-1.69
2023-02-15T07:40:25.992Z,-1.47
2023-02-15T07:42:54.418Z,-1.74
2023-02-15T07:45:21.828Z,-1.26
2023-02-15T07:47:48.573Z,-1.29
2023-02-15T07:50:15.328Z,-1.20
2023-02-15T07:52:41.941Z,-1.21
2023-02-15T07:55:09.692Z,-1.18
2023-02-15T07:57:36.471Z,-1.43
2023-02-15T08:00:04.591Z,-1.10
2023-02-15T08:02:31.592Z,-1.22
2023-02-15T08:04:58.030Z,-1.00
2023-02-15T08:07:24.789Z,-1.17
2023-02-15T08:09:51.413Z,-1.14
2023-02-15T08:12:18.000Z,-1.13
2023-02-15T08:14:44.592Z,-1.28
2023-02-15T08:17:10.983Z,-1.27
2023-02-15T08:19:37.653Z,-1.25
2023-02-15T08:22:08.825Z,-1.07
2023-02-15T08:24:40.124Z,-1.17
2023-02-15T08:27:08.507Z,-1.18
2023-02-15T08:29:36.613Z,-1.09
2023-02-15T08:32:05.999Z,-1.04
2023-02-15T08:34:35.923Z,-1.03
2023-02-15T08:37:02.640Z,-0.91
2023-02-15T08:39:29.917Z,-0.82
2023-02-15T08:41:56.851Z,-0.97
2023-02-15T08:44:23.797Z,-1.01
2023-02-15T08:46:50.765Z,-1.09
2023-02-15T08:49:20.710Z,-1.07
2023-02-15T08:51:48.612Z,-0.84
2023-02-15T08:54:18.182Z,-0.85
2023-02-15T08:56:46.027Z,-0.92
2023-02-15T08:59:21.163Z,-0.91
2023-02-15T09:01:49.416Z,-0.98
2023-02-15T09:04:17.213Z,-0.94
2023-02-15T09:06:48.099Z,-0.72
2023-02-15T09:09:16.159Z,-0.64
2023-02-15T09:11:45.305Z,-0.69
2023-02-15T09:14:15.835Z,-0.64
2023-02-15T09:16:50.047Z,-0.68
2023-02-15T09:19:19.170Z,-0.47
2023-02-15T09:21:46.167Z,-0.54
2023-02-15T09:24:15.302Z,-0.43
2023-02-15T09:26:44.294Z,-0.60
2023-02-15T09:29:12.401Z,-0.62
2023-02-15T09:31:45.676Z,-0.50
2023-02-15T09:34:18.359Z,-0.88
2023-02-15T09:36:45.900Z,-0.75
2023-02-15T09:39:15.723Z,-0.55
2023-02-15T09:42:10.527Z,-0.49
2023-02-15T09:44:54.975Z,-0.57
2023-02-15T09:47:43.013Z,-0.33
2023-02-15T09:50:48.195Z,-0.54
2023-02-15T09:53:26.757Z,-0.72
2023-02-15T09:56:26.001Z,-0.80
2023-02-15T09:58:52.365Z,-0.84
2023-02-15T10:01:40.556Z,-0.68
2023-02-15T10:04:28.750Z,-0.46
2023-02-15T10:07:12.958Z,-0.33
2023-02-15T10:09:55.040Z,-0.20
2023-02-15T10:12:54.947Z,-0.19
2023-02-15T10:15:31.017Z,-0.05
2023-02-15T10:18:05.073Z,-0.17
2023-02-15T10:20:40.969Z,-0.39
2023-02-15T10:23:20.043Z,-0.40
2023-02-15T10:26:19.237Z,-0.24
2023-02-15T10:28:53.720Z,-0.21
2023-02-15T10:31:49.022Z,-0.12
2023-02-15T10:34:18.617Z,0.03
2023-02-15T10:37:03.081Z,0.06
2023-02-15T10:39:48.162Z,0.12
2023-02-15T10:42:29.515Z,0.15
2023-02-15T10:45:08.935Z,-0.11
2023-02-15T10:47:51.833Z,0.11
2023-02-15T10:50:34.117Z,0.09
2023-02-15T10:53:25.577Z,-0.18
2023-02-15T10:56:27.844Z,-0.24
2023-02-15T10:59:07.799Z,0.26
2023-02-15T11:02:02.918Z,0.12
2023-02-15T11:04:36.939Z,0.17
2023-02-15T11:07:09.879Z,0.22
2023-02-15T11:09:47.266Z,0.31
2023-02-15T11:12:18.891Z,0.54
2023-02-15T11:14:57.501Z,0.52
2023-02-15T11:17:53.059Z,0.49
2023-02-15T11:20:31.309Z,0.49
2023-02-15T11:22:58.326Z,0.31
2023-02-15T11:25:31.069Z,0.31
2023-02-15T11:27:58.719Z,0.49
2023-02-15T11:30:45.431Z,0.26
2023-02-15T11:33:23.416Z,0.06
2023-02-15T11:36:04.689Z,0.11
2023-02-15T11:38:34.216Z,0.19
2023-02-15T11:41:10.076Z,0.31
2023-02-15T11:43:50.595Z,0.60
2023-02-15T11:46:17.236Z,0.75
2023-02-15T11:48:43.973Z,0.76
2023-02-15T11:51:15.236Z,0.71
2023-02-15T11:53:42.058Z,0.74
2023-02-15T11:56:15.926Z,0.81
2023-02-15T11:59:01.110Z,0.76
2023-02-15T12:01:37.913Z,0.64
2023-02-15T12:04:29.533Z,0.65
2023-02-15T12:07:03.189Z,0.77
2023-02-15T12:09:41.847Z,0.95
2023-02-15T12:12:33.469Z,0.89
2023-02-15T12:15:11.501Z,1.07
2023-02-15T12:17:53.523Z,1.01
2023-02-15T12:20:20.209Z,0.74
2023-02-15T12:22:54.353Z,1.04
2023-02-15T12:25:38.939Z,0.94
2023-02-15T12:28:23.365Z,0.89
2023-02-15T12:30:51.798Z,1.15
2023-02-15T12:33:46.784Z,1.07
2023-02-15T12:36:19.148Z,1.50
2023-02-15T12:39:38.612Z,1.33
2023-02-15T12:42:16.606Z,1.22
2023-02-15T12:44:59.699Z,1.53
2023-02-15T12:47:30.694Z,1.60
2023-02-15T12:50:35.798Z,1.07
2023-02-15T12:53:24.073Z,1.19
2023-02-15T12:56:05.880Z,1.39
2023-02-15T12:58:37.611Z,1.29
2023-02-15T13:01:10.292Z,1.43
2023-02-15T13:03:39.891Z,1.59
2023-02-15T13:06:09.973Z,1.79
2023-02-15T13:08:46.351Z,1.26
2023-02-15T13:11:13.710Z,1.48
2023-02-15T13:13:53.292Z,1.48
2023-02-15T13:16:31.055Z,1.60
2023-02-15T13:18:59.400Z,1.64
2023-02-15T13:21:31.488Z,1.43
2023-02-15T13:24:04.226Z,1.43
2023-02-15T13:26:32.998Z,1.30
2023-02-15T13:29:06.753Z,1.30
2023-02-15T13:31:34.476Z,1.50
2023-02-15T13:34:08.677Z,1.64
2023-02-15T13:36:42.516Z,1.85
2023-02-15T13:39:45.372Z,1.83
2023-02-15T13:42:37.198Z,1.74
2023-02-15T13:45:24.923Z,1.53
2023-02-15T13:48:00.811Z,1.61
2023-02-15T13:51:08.244Z,1.41
2023-02-15T13:54:00.077Z,1.49
2023-02-15T13:56:46.032Z,1.69
2023-02-15T13:59:30.832Z,1.51
2023-02-15T14:02:27.066Z,1.67
2023-02-15T14:05:23.690Z,1.74
2023-02-15T14:08:11.037Z,1.86
2023-02-15T14:10:45.902Z,1.82
2023-02-15T14:13:44.570Z,1.59
2023-02-15T14:16:17.100Z,1.66
2023-02-15T14:18:51.176Z,1.72
2023-02-15T14:21:20.541Z,1.79
2023-02-15T14:24:04.238Z,1.81
2023-02-15T14:26:33.544Z,1.74
2023-02-15T14:29:25.837Z,1.85
2023-02-15T14:32:05.621Z,1.73
2023-02-15T14:34:47.404Z,1.54
2023-02-15T14:37:17.458Z,1.82
2023-02-15T14:40:23.336Z,1.92
2023-02-15T14:42:59.745Z,1.79
2023-02-15T14:45:34.650Z,1.65
2023-02-15T14:48:20.880Z,1.57
2023-02-15T14:50:50.387Z,1.71
2023-02-15T14:53:16.880Z,1.56
2023-02-15T14:55:43.300Z,1.66
2023-02-15T14:58:14.766Z,1.62
2023-02-15T15:00:42.759Z,1.70
2023-02-15T15:03:24.909Z,1.40
2023-02-15T15:06:00.176Z,1.80
2023-02-15T15:08:38.017Z,1.70
2023-02-15T15:11:42.491Z,1.77
2023-02-15T15:14:11.268Z,1.74
2023-02-15T15:16:38.084Z,1.78
2023-02-15T15:19:10.176Z,1.83
2023-02-15T15:21:56.314Z,1.46
2023-02-15T15:24:37.828Z,1.51
2023-02-15T15:27:46.465Z,1.50
2023-02-15T15:30:15.916Z,1.68
2023-02-15T15:32:54.061Z,1.54
2023-02-15T15:35:38.940Z,1.42
2023-02-15T15:38:33.255Z,1.45
2023-02-15T15:41:21.198Z,1.52
2023-02-15T15:44:27.148Z,1.44
2023-02-15T15:47:25.972Z,1.28
2023-02-15T15:49:58.000Z,1.38
2023-02-15T15:52:25.705Z,1.49
2023-02-15T15:54:57.718Z,1.35
2023-02-15T15:57:35.077Z,1.29
2023-02-15T16:00:02.280Z,1.06
2023-02-15T16:02:29.228Z,1.04
2023-02-15T16:04:56.021Z,1.12
2023-02-15T16:07:27.193Z,0.97
2023-02-15T16:09:56.370Z,1.20
2023-02-15T16:12:23.943Z,1.17
2023-02-15T16:14:52.872Z,1.04
2023-02-15T16:17:23.684Z,0.98
2023-02-15T16:19:51.750Z,0.87
2023-02-15T16:22:28.369Z,0.97
2023-02-15T16:25:02.591Z,0.87
2023-02-15T16:27:38.059Z,0.99
2023-02-15T16:30:25.324Z,0.96
2023-02-15T16:33:04.674Z,1.03
2023-02-15T16:35:31.602Z,1.13
2023-02-15T16:37:58.289Z,1.13
2023-02-15T16:40:24.788Z,1.19
2023-02-15T16:43:15.336Z,0.91
2023-02-15T16:45:45.265Z,1.11
2023-02-15T16:48:24.846Z,1.14
2023-02-15T16:50:58.165Z,0.92
2023-02-15T16:53:27.618Z,1.15
2023-02-15T16:55:57.820Z,1.20
2023-02-15T16:58:30.833Z,1.22
2023-02-15T17:01:01.509Z,1.07
2023-02-15T17:03:28.568Z,1.02
2023-02-15T17:05:57.717Z,0.87
2023-02-15T17:08:32.102Z,0.96
2023-02-15T17:11:15.799Z,0.95
2023-02-15T17:14:10.905Z,0.94
2023-02-15T17:16:42.199Z,0.99
2023-02-15T17:19:24.494Z,0.96
2023-02-15T17:22:04.706Z,0.84
2023-02-15T17:24:45.751Z,0.77
2023-02-15T17:27:30.418Z,0.86
2023-02-15T17:30:03.554Z,0.73
2023-02-15T17:32:33.041Z,0.90
2023-02-15T17:35:09.399Z,0.91
2023-02-15T17:37:39.109Z,0.82
2023-02-15T17:40:21.395Z,0.89
2023-02-15T17:42:48.123Z,1.01
2023-02-15T17:45:15.566Z,0.83
2023-02-15T17:47:42.539Z,0.84
2023-02-15T17:50:18.833Z,0.87
2023-02-15T17:52:45.472Z,0.81
2023-02-15T17:55:39.302Z,0.90
2023-02-15T17:58:08.800Z,0.96
2023-02-15T18:00:58.160Z,0.75
2023-02-15T18:03:48.048Z,0.74
2023-02-15T18:06:33.562Z,0.88
2023-02-15T18:09:18.366Z,0.71
2023-02-15T18:11:48.655Z,0.76
2023-02-15T18:14:14.998Z,0.77
2023-02-15T18:16:44.658Z,0.70
2023-02-15T18:19:17.584Z,0.79
2023-02-15T18:21:45.437Z,0.80
2023-02-15T18:24:24.600Z,0.60
2023-02-15T18:26:53.014Z,0.53
2023-02-15T18:29:20.218Z,0.53
2023-02-15T18:31:51.965Z,0.48
2023-02-15T18:34:32.237Z,0.67
2023-02-15T18:37:02.414Z,0.75
2023-02-15T18:39:48.768Z,0.69
2023-02-15T18:42:27.314Z,0.72
2023-02-15T18:44:56.758Z,0.87
2023-02-15T18:47:23.699Z,0.67
2023-02-15T18:49:50.333Z,0.74
2023-02-15T18:52:19.476Z,0.76
2023-02-15T18:54:47.103Z,0.65
2023-02-15T18:57:15.783Z,0.76
2023-02-15T18:59:42.927Z,0.76
2023-02-15T19:02:14.773Z,0.51
2023-02-15T19:04:44.534Z,0.67
2023-02-15T19:07:31.352Z,0.71
2023-02-15T19:10:01.663Z,0.60
2023-02-15T19:12:28.559Z,0.58
2023-02-15T19:14:56.798Z,0.65
2023-02-15T19:17:24.736Z,0.36
2023-02-15T19:19:52.675Z,0.44
2023-02-15T19:22:27.815Z,0.50
2023-02-15T19:24:58.604Z,0.58
2023-02-15T19:27:33.070Z,0.66
2023-02-15T19:30:01.064Z,0.62
2023-02-15T19:32:27.982Z,0.64
2023-02-15T19:34:54.334Z,0.57
2023-02-15T19:37:39.468Z,0.51
2023-02-15T19:40:07.978Z,0.56
2023-02-15T19:42:34.845Z,0.70
2023-02-15T19:45:01.489Z,0.60
2023-02-15T19:47:28.622Z,0.53
2023-02-15T19:50:00.246Z,0.57
2023-02-15T19:52:26.918Z,0.66
2023-02-15T19:54:54.883Z,0.65
2023-02-15T19:57:21.845Z,0.29
2023-02-15T19:59:48.547Z,0.28
2023-02-15T20:02:18.265Z,0.38
2023-02-15T20:04:44.947Z,0.43
2023-02-15T20:07:29.566Z,0.11
2023-02-15T20:09:56.310Z,-0.07
2023-02-15T20:12:26.037Z,0.07
2023-02-15T20:14:53.041Z,0.27
2023-02-15T20:17:19.876Z,0.26
2023-02-15T20:19:46.431Z,0.19
2023-02-15T20:22:25.606Z,0.24
2023-02-15T20:24:55.658Z,0.37
2023-02-15T20:27:23.025Z,0.33
2023-02-15T20:29:50.730Z,0.44
2023-02-15T20:32:17.469Z,0.33
2023-02-15T20:34:44.200Z,0.36
2023-02-15T20:37:26.273Z,0.47
2023-02-15T20:39:52.738Z,0.41
2023-02-15T20:42:19.710Z,0.45
2023-02-15T20:44:46.652Z,0.43
2023-02-15T20:47:12.958Z,0.23
2023-02-15T20:49:39.580Z,0.41
2023-02-15T20:52:19.404Z,0.54
2023-02-15T20:54:46.130Z,0.56
2023-02-15T20:57:13.257Z,0.58
2023-02-15T20:59:40.633Z,0.53
2023-02-15T21:02:16.682Z,0.46
2023-02-15T21:04:43.248Z,0.53
2023-02-15T21:07:17.593Z,0.45
2023-02-15T21:09:45.104Z,0.25
2023-02-15T21:12:16.537Z,0.29
2023-02-15T21:14:44.588Z,0.35
2023-02-15T21:17:16.425Z,0.29
2023-02-15T21:19:43.524Z,0.26
2023-02-15T21:22:13.657Z,0.27
2023-02-15T21:24:47.857Z,0.19
2023-02-15T21:27:15.060Z,0.07
2023-02-15T21:29:44.198Z,0.08
2023-02-15T21:32:11.062Z,0.09
2023-02-15T21:34:37.688Z,0.18
2023-02-15T21:37:05.247Z,0.23
2023-02-15T21:39:35.727Z,0.31
2023-02-15T21:42:20.867Z,-0.08
2023-02-15T21:45:05.794Z,0.11
2023-02-15T21:47:50.653Z,-0.23
2023-02-15T21:50:43.130Z,-0.13
2023-02-15T21:53:17.287Z,-0.19
2023-02-15T21:55:44.707Z,0.05
2023-02-15T21:58:20.673Z,-0.04
2023-02-15T22:00:47.777Z,0.16
2023-02-15T22:03:14.425Z,0.04
2023-02-15T22:05:41.026Z,0.01
2023-02-15T22:08:26.101Z,0.01
2023-02-15T22:10:55.015Z,0.16
2023-02-15T22:13:31.163Z,0.17
2023-02-15T22:15:58.638Z,-0.15
2023-02-15T22:18:27.917Z,0.01
2023-02-15T22:20:55.858Z,-0.23
2023-02-15T22:23:23.594Z,-0.06
2023-02-15T22:25:56.587Z,-0.32
2023-02-15T22:28:28.405Z,-0.15
2023-02-15T22:30:54.981Z,-0.08
2023-02-15T22:33:27.807Z,0.02
2023-02-15T22:35:54.754Z,0.10
2023-02-15T22:38:21.398Z,0.03
2023-02-15T22:40:50.413Z,-0.13
2023-02-15T22:43:30.418Z,-0.08
2023-02-15T22:46:02.259Z,-0.24
2023-02-15T22:48:28.741Z,-0.26
2023-02-15T22:50:55.256Z,-0.15
2023-02-15T22:53:21.617Z,-0.07
2023-02-15T22:55:48.763Z,-0.01
2023-02-15T22:58:25.172Z,-0.21
2023-02-15T23:00:52.318Z,-0.03
2023-02-15T23:03:24.968Z,-0.08
2023-02-15T23:05:52.703Z,0.05
2023-02-15T23:08:19.552Z,0.10
2023-02-15T23:10:51.786Z,0.20
2023-02-15T23:13:31.308Z,-0.04
2023-02-15T23:16:00.349Z,0.01
2023-02-15T23:18:32.620Z,0.12
2023-02-15T23:21:15.031Z,0.00
2023-02-15T23:23:44.662Z,0.11
2023-02-15T23:26:20.516Z,-0.03
2023-02-15T23:28:48.322Z,0.12
2023-02-15T23:31:27.129Z,0.07
2023-02-15T23:33:54.514Z,-0.19
2023-02-15T23:36:32.556Z,0.01
2023-02-15T23:39:24.453Z,-0.05
2023-02-15T23:41:51.445Z,-0.05
2023-02-15T23:44:19.593Z,0.01
2023-02-15T23:46:48.634Z,-0.04
2023-02-15T23:49:18.321Z,-0.03
2023-02-15T23:51:47.460Z,-0.16
2023-02-15T23:54:15.575Z,-0.24
2023-02-15T23:56:44.310Z,-0.18
2023-02-15T23:59:23.630Z,-0.16
